Time;durP1;ratioP1;P1;durP2;ratioP2;P2;SDS_P1;SDS_P2;PMS_P1;PMS_P2;Temp;Humidity;BMP_temperature;BMP_pressure;BME280_temperature;BME280_humidity;BME280_pressure;Samples;Min_cycle;Max_cycle;Signal;HPM_P1;HPM_P2
2024/02/26 00:02:19;;;;;;;9.20;8.27;;;5.00;99.90;;;;;;5036350;28;20527;-59
2024/02/26 00:04:48;;;;;;;9.60;8.60;;;5.00;99.90;;;;;;5036792;28;20463;-58
2024/02/26 00:07:16;;;;;;;8.77;7.87;;;4.90;99.90;;;;;;5035702;28;20545;-58
2024/02/26 00:09:44;;;;;;;9.03;8.13;;;4.90;99.90;;;;;;5031648;28;20471;-57
2024/02/26 00:12:12;;;;;;;8.33;7.40;;;4.80;99.90;;;;;;5034308;28;21675;-58
2024/02/26 00:14:41;;;;;;;10.13;8.30;;;4.80;99.90;;;;;;5036971;28;20467;-58
2024/02/26 00:17:09;;;;;;;8.77;7.90;;;4.80;99.90;;;;;;5035912;28;20490;-58
2024/02/26 00:19:37;;;;;;;9.03;7.77;;;4.70;99.90;;;;;;5037245;28;20471;-58
2024/02/26 00:22:06;;;;;;;8.23;7.43;;;4.70;99.90;;;;;;5031493;28;20474;-58
2024/02/26 00:24:34;;;;;;;7.83;7.13;;;4.70;99.90;;;;;;5036385;28;20848;-58
2024/02/26 00:27:03;;;;;;;9.03;8.20;;;4.60;99.90;;;;;;5028810;28;20499;-58
2024/02/26 00:29:32;;;;;;;9.23;8.30;;;4.60;99.90;;;;;;5034362;28;20582;-58
2024/02/26 00:32:00;;;;;;;8.60;7.70;;;4.50;99.90;;;;;;5031147;28;20553;-58
2024/02/26 00:34:28;;;;;;;9.40;7.33;;;4.50;99.90;;;;;;5030910;28;20482;-58
2024/02/26 00:36:57;;;;;;;9.30;7.50;;;4.50;99.90;;;;;;5031390;28;20555;-57
2024/02/26 00:39:26;;;;;;;8.00;7.20;;;4.50;99.90;;;;;;5030682;28;20495;-58
2024/02/26 00:41:54;;;;;;;9.20;7.50;;;4.40;99.90;;;;;;5035963;28;20466;-58
2024/02/26 00:44:22;;;;;;;8.73;7.60;;;4.30;99.90;;;;;;5031847;28;20489;-58
2024/02/26 00:46:50;;;;;;;7.53;6.83;;;4.30;99.90;;;;;;5035243;28;20490;-59
2024/02/26 00:49:18;;;;;;;8.10;7.30;;;4.30;99.90;;;;;;5025974;28;20500;-58
2024/02/26 00:51:46;;;;;;;8.73;7.93;;;4.30;99.90;;;;;;5027825;28;20467;-58
2024/02/26 00:54:14;;;;;;;9.13;8.20;;;4.20;99.90;;;;;;5017879;28;21369;-57
2024/02/26 00:56:44;;;;;;;8.73;7.83;;;4.20;99.90;;;;;;5028727;28;20494;-59
2024/02/26 00:59:12;;;;;;;8.63;7.73;;;4.20;99.90;;;;;;5031653;28;20496;-59
2024/02/26 01:01:40;;;;;;;9.60;7.80;;;4.10;99.90;;;;;;5031805;28;20474;-58
2024/02/26 01:04:08;;;;;;;8.40;7.50;;;4.10;99.90;;;;;;5028911;28;21011;-58
2024/02/26 01:06:36;;;;;;;9.13;8.17;;;4.10;99.90;;;;;;5027336;28;20486;-58
2024/02/26 01:09:04;;;;;;;9.10;8.20;;;4.10;99.90;;;;;;5036475;28;21007;-58
2024/02/26 01:11:32;;;;;;;8.27;7.47;;;4.00;99.90;;;;;;5026597;28;21639;-58
2024/02/26 01:14:03;;;;;;;10.07;8.30;;;4.00;99.90;;;;;;5036306;28;20496;-58
2024/02/26 01:16:31;;;;;;;9.67;8.00;;;4.00;99.90;;;;;;5030567;28;20490;-58
2024/02/26 01:18:59;;;;;;;9.53;8.50;;;3.90;99.90;;;;;;5029986;28;21105;-58
2024/02/26 01:21:29;;;;;;;9.60;7.93;;;3.90;99.90;;;;;;5031043;28;20469;-60
2024/02/26 01:23:57;;;;;;;8.53;7.73;;;3.90;99.90;;;;;;5036378;28;21016;-57
2024/02/26 01:26:25;;;;;;;10.37;8.93;;;3.90;99.90;;;;;;5031396;28;20491;-56
2024/02/26 01:28:54;;;;;;;9.93;9.03;;;3.80;99.90;;;;;;5026334;28;20512;-58
2024/02/26 01:31:24;;;;;;;9.43;8.43;;;3.80;99.90;;;;;;5027600;28;20498;-58
2024/02/26 01:33:52;;;;;;;9.30;8.33;;;3.70;99.90;;;;;;5035020;28;20481;-58
2024/02/26 01:36:21;;;;;;;10.60;8.90;;;3.70;99.90;;;;;;5032415;28;20482;-58
2024/02/26 01:38:49;;;;;;;9.57;8.57;;;3.70;99.90;;;;;;5028208;28;20518;-58
2024/02/26 01:41:17;;;;;;;9.50;8.37;;;3.70;99.90;;;;;;5033287;28;20909;-58
2024/02/26 01:43:45;;;;;;;10.80;8.70;;;3.60;99.90;;;;;;5034145;28;20832;-59
2024/02/26 01:46:15;;;;;;;10.50;9.03;;;3.60;99.90;;;;;;5030849;28;20574;-58
2024/02/26 01:48:47;;;;;;;9.87;8.60;;;3.60;99.90;;;;;;5029725;28;20509;-59
2024/02/26 01:51:17;;;;;;;9.27;8.30;;;3.50;99.90;;;;;;5030006;28;20475;-59
2024/02/26 01:53:45;;;;;;;10.63;9.50;;;3.50;99.90;;;;;;5031502;28;20470;-57
2024/02/26 01:56:15;;;;;;;10.07;9.03;;;3.50;99.90;;;;;;5031698;28;20575;-59
2024/02/26 01:58:44;;;;;;;10.07;8.97;;;3.50;99.90;;;;;;5033869;28;20592;-59
2024/02/26 02:01:13;;;;;;;9.10;8.20;;;3.40;99.90;;;;;;5033883;28;20550;-59
2024/02/26 02:03:41;;;;;;;9.03;8.10;;;3.40;99.90;;;;;;5027451;28;21090;-61
2024/02/26 02:06:11;;;;;;;8.90;8.00;;;3.40;99.90;;;;;;5028507;28;21376;-57
2024/02/26 02:08:39;;;;;;;9.00;8.13;;;3.40;99.90;;;;;;5033678;28;20494;-58
2024/02/26 02:11:10;;;;;;;9.60;8.27;;;3.40;99.90;;;;;;5027450;28;20898;-58
2024/02/26 02:13:38;;;;;;;10.10;8.67;;;3.40;99.90;;;;;;5030661;28;21071;-58
2024/02/26 02:16:06;;;;;;;10.37;9.27;;;3.40;99.90;;;;;;5026988;28;20490;-58
2024/02/26 02:18:34;;;;;;;10.47;8.80;;;3.30;99.90;;;;;;5026804;28;20494;-58
2024/02/26 02:21:04;;;;;;;9.50;8.50;;;3.30;99.90;;;;;;5031021;28;20470;-58
2024/02/26 02:23:32;;;;;;;8.97;8.17;;;3.30;99.90;;;;;;5025717;28;21111;-57
2024/02/26 02:26:03;;;;;;;9.73;8.70;;;3.20;99.90;;;;;;5020970;28;20587;-57
2024/02/26 02:28:32;;;;;;;8.63;7.73;;;3.20;99.90;;;;;;5031672;28;20582;-58
2024/02/26 02:31:00;;;;;;;9.80;8.73;;;3.20;99.90;;;;;;5028078;28;20471;-58
2024/02/26 02:33:28;;;;;;;10.23;9.23;;;3.10;99.90;;;;;;5029352;28;20471;-58
2024/02/26 02:35:57;;;;;;;9.20;8.30;;;3.10;99.90;;;;;;5026283;28;20566;-57
2024/02/26 02:38:34;;;;;;;13.10;9.87;;;3.10;99.90;;;;;;5029138;28;20561;-57
2024/02/26 02:41:02;;;;;;;12.27;10.43;;;3.10;99.90;;;;;;5028284;28;20477;-58
2024/02/26 02:43:30;;;;;;;13.00;10.00;;;3.10;99.90;;;;;;5029934;28;20467;-59
2024/02/26 02:45:58;;;;;;;12.23;10.70;;;3.10;99.90;;;;;;5032694;28;20506;-57
2024/02/26 02:48:26;;;;;;;11.50;10.00;;;3.00;99.90;;;;;;5030529;28;20496;-59
2024/02/26 02:50:54;;;;;;;12.10;10.80;;;3.00;99.90;;;;;;5033592;28;20979;-59
2024/02/26 02:53:22;;;;;;;12.67;11.37;;;3.00;99.90;;;;;;5028486;28;20511;-58
2024/02/26 02:55:52;;;;;;;12.87;10.90;;;3.00;99.90;;;;;;5028896;28;21576;-59
2024/02/26 02:58:19;;;;;;;13.23;10.53;;;3.00;99.90;;;;;;5027881;28;20621;-58
2024/02/26 03:00:48;;;;;;;14.90;11.07;;;3.00;99.90;;;;;;5028670;28;20938;-59
2024/02/26 03:03:16;;;;;;;11.80;10.13;;;2.90;99.90;;;;;;5028775;28;20472;-57
2024/02/26 03:05:44;;;;;;;12.07;10.60;;;2.90;99.90;;;;;;5026772;28;20490;-58
2024/02/26 03:08:12;;;;;;;12.37;10.37;;;2.90;99.90;;;;;;5030328;28;20495;-59
2024/02/26 03:10:42;;;;;;;12.50;11.20;;;2.90;99.90;;;;;;5030941;28;20498;-59
2024/02/26 03:13:12;;;;;;;13.43;11.23;;;2.90;99.90;;;;;;5032121;28;20470;-59
2024/02/26 03:15:40;;;;;;;14.97;12.07;;;2.90;99.90;;;;;;5030527;28;20498;-59
2024/02/26 03:18:08;;;;;;;14.30;12.77;;;2.90;99.90;;;;;;5026627;28;20518;-58
2024/02/26 03:20:36;;;;;;;13.73;12.20;;;2.90;99.90;;;;;;5029884;28;20475;-58
2024/02/26 03:23:05;;;;;;;12.87;10.83;;;3.00;99.90;;;;;;5028672;28;20478;-58
2024/02/26 03:25:33;;;;;;;13.23;11.87;;;3.00;99.90;;;;;;5033848;28;21099;-58
2024/02/26 03:28:00;;;;;;;13.20;11.73;;;3.00;99.90;;;;;;5025690;28;21082;-58
2024/02/26 03:30:29;;;;;;;13.13;11.70;;;2.90;99.90;;;;;;5031560;28;20470;-56
2024/02/26 03:32:57;;;;;;;15.03;13.30;;;2.90;99.90;;;;;;5033062;28;20883;-57
2024/02/26 03:35:25;;;;;;;14.10;12.60;;;2.90;99.90;;;;;;5030426;28;20482;-57
2024/02/26 03:37:53;;;;;;;13.77;11.20;;;2.80;99.90;;;;;;5031957;28;20524;-57
2024/02/26 03:40:21;;;;;;;13.97;12.20;;;2.90;99.90;;;;;;5031141;28;20538;-58
2024/02/26 03:42:49;;;;;;;13.97;12.47;;;2.80;99.90;;;;;;5035804;28;20474;-58
2024/02/26 03:45:17;;;;;;;12.70;11.40;;;2.80;99.90;;;;;;5034162;28;20561;-57
2024/02/26 03:47:47;;;;;;;12.57;11.27;;;2.80;99.90;;;;;;5033266;28;20491;-58
2024/02/26 03:50:16;;;;;;;14.80;12.70;;;2.70;99.90;;;;;;5030768;28;20494;-58
2024/02/26 03:52:44;;;;;;;12.80;11.43;;;2.70;99.90;;;;;;5028845;28;21120;-58
2024/02/26 03:55:12;;;;;;;13.40;11.83;;;2.70;99.90;;;;;;5026151;28;20565;-58
2024/02/26 03:57:40;;;;;;;15.07;12.60;;;2.70;99.90;;;;;;5029097;28;21055;-58
2024/02/26 04:00:08;;;;;;;13.20;11.40;;;2.70;99.90;;;;;;5031936;28;20552;-57
2024/02/26 04:02:37;;;;;;;13.47;11.67;;;2.70;99.90;;;;;;5030581;28;20653;-59
2024/02/26 04:05:15;;;;;;;13.13;11.60;;;2.70;99.90;;;;;;5030007;28;20483;-58
2024/02/26 04:07:43;;;;;;;14.07;12.37;;;2.60;99.90;;;;;;5031674;28;20482;-57
2024/02/26 04:10:12;;;;;;;14.60;12.97;;;2.70;99.90;;;;;;5030413;28;20567;-57
2024/02/26 04:12:41;;;;;;;14.70;11.97;;;2.70;99.90;;;;;;5028604;28;20475;-58
2024/02/26 04:15:10;;;;;;;13.57;11.80;;;2.70;99.90;;;;;;5030819;28;21073;-58
2024/02/26 04:17:39;;;;;;;14.03;11.33;;;2.70;99.90;;;;;;5031323;28;20531;-58
2024/02/26 04:20:13;;;;;;;15.07;12.90;;;2.70;99.90;;;;;;5027267;28;20470;-57
2024/02/26 04:22:41;;;;;;;14.60;12.93;;;2.70;99.90;;;;;;5026693;28;20466;-58
2024/02/26 04:25:10;;;;;;;15.40;13.30;;;2.60;99.90;;;;;;5033793;28;20553;-58
2024/02/26 04:27:38;;;;;;;13.83;12.07;;;2.60;99.90;;;;;;5031796;28;20522;-58
2024/02/26 04:30:07;;;;;;;12.97;11.37;;;2.60;99.90;;;;;;5030467;28;20529;-59
2024/02/26 04:32:35;;;;;;;14.10;11.93;;;2.60;99.90;;;;;;5030971;28;21031;-58
2024/02/26 04:35:04;;;;;;;13.97;12.20;;;2.60;99.90;;;;;;5024612;28;20993;-58
2024/02/26 04:37:33;;;;;;;14.40;12.27;;;2.60;99.90;;;;;;5028977;28;20513;-57
2024/02/26 04:40:02;;;;;;;13.67;11.57;;;2.50;99.90;;;;;;5029526;28;20601;-58
2024/02/26 04:42:30;;;;;;;14.70;12.40;;;2.50;99.90;;;;;;5034951;28;20502;-59
2024/02/26 04:44:58;;;;;;;13.47;11.77;;;2.50;99.90;;;;;;5023975;28;20477;-58
2024/02/26 04:47:26;;;;;;;13.17;11.83;;;2.50;99.90;;;;;;5030810;28;21014;-57
2024/02/26 04:49:54;;;;;;;12.17;10.37;;;2.50;99.90;;;;;;5031993;28;21014;-57
2024/02/26 04:52:21;;;;;;;13.27;11.07;;;2.40;99.90;;;;;;5031151;28;20462;-57
2024/02/26 04:54:51;;;;;;;14.20;11.70;;;2.40;99.90;;;;;;5030061;28;21570;-57
2024/02/26 04:57:19;;;;;;;13.63;11.77;;;2.40;99.90;;;;;;5027815;28;20906;-57
2024/02/26 04:59:47;;;;;;;13.70;11.00;;;2.40;99.90;;;;;;5032781;28;20462;-57
2024/02/26 05:02:15;;;;;;;14.30;12.20;;;2.40;99.90;;;;;;5030199;28;20471;-57
2024/02/26 05:04:43;;;;;;;14.03;11.80;;;2.40;99.90;;;;;;5032643;28;20839;-57
2024/02/26 05:07:12;;;;;;;13.90;11.27;;;2.40;99.90;;;;;;5028365;28;20578;-58
2024/02/26 05:09:41;;;;;;;11.90;10.70;;;2.40;99.90;;;;;;5030562;28;20498;-57
2024/02/26 05:12:11;;;;;;;14.23;11.33;;;2.30;99.90;;;;;;5031747;28;20462;-58
2024/02/26 05:14:40;;;;;;;14.03;11.77;;;2.30;99.90;;;;;;5030769;28;21050;-57
2024/02/26 05:17:08;;;;;;;12.90;11.33;;;2.30;99.90;;;;;;5034326;28;20497;-57
2024/02/26 05:19:36;;;;;;;13.33;11.70;;;2.30;99.90;;;;;;5029647;28;20503;-57
2024/02/26 05:22:04;;;;;;;13.30;11.07;;;2.30;99.90;;;;;;5029185;28;21237;-59
2024/02/26 05:24:31;;;;;;;13.70;12.00;;;2.30;99.90;;;;;;5033018;28;20470;-57
2024/02/26 05:27:01;;;;;;;11.60;10.30;;;2.30;99.90;;;;;;5030237;28;20587;-57
2024/02/26 05:29:30;;;;;;;12.03;10.80;;;2.30;99.90;;;;;;5034374;28;20611;-57
2024/02/26 05:31:58;;;;;;;12.70;10.90;;;2.30;99.90;;;;;;5022143;28;20659;-57
2024/02/26 05:34:26;;;;;;;12.80;11.27;;;2.30;99.90;;;;;;5030247;28;20475;-57
2024/02/26 05:36:54;;;;;;;12.20;10.70;;;2.30;99.90;;;;;;5023159;28;20490;-56
2024/02/26 05:39:22;;;;;;;13.40;11.73;;;2.30;99.90;;;;;;5027824;28;20482;-57
2024/02/26 05:41:50;;;;;;;13.50;10.90;;;2.30;99.90;;;;;;5030285;28;20478;-57
2024/02/26 05:44:18;;;;;;;13.83;11.83;;;2.30;99.90;;;;;;5032579;28;21214;-58
2024/02/26 05:46:48;;;;;;;11.83;10.33;;;2.30;99.90;;;;;;5029998;28;20492;-56
2024/02/26 05:49:16;;;;;;;15.30;10.67;;;2.30;99.90;;;;;;5030861;28;20585;-57
2024/02/26 05:51:44;;;;;;;14.13;12.20;;;2.30;99.90;;;;;;5027534;28;20490;-57
2024/02/26 05:54:12;;;;;;;13.00;11.43;;;2.30;99.90;;;;;;5027316;28;20498;-58
2024/02/26 05:56:40;;;;;;;13.63;11.87;;;2.30;99.90;;;;;;5030182;28;20510;-58
2024/02/26 05:59:08;;;;;;;12.93;11.50;;;2.30;99.90;;;;;;5026295;28;20494;-57
2024/02/26 06:01:36;;;;;;;13.47;11.70;;;2.30;99.90;;;;;;5026335;28;20472;-57
2024/02/26 06:04:05;;;;;;;11.77;10.50;;;2.30;99.90;;;;;;5029076;28;23800;-56
2024/02/26 06:06:34;;;;;;;14.23;11.73;;;2.30;99.90;;;;;;5026061;28;20487;-58
2024/02/26 06:09:04;;;;;;;15.40;11.20;;;2.30;99.90;;;;;;5031967;28;20574;-57
2024/02/26 06:11:33;;;;;;;15.10;11.20;;;2.30;99.90;;;;;;5030331;28;20625;-57
2024/02/26 06:14:01;;;;;;;13.10;10.90;;;2.30;99.90;;;;;;5031340;28;20531;-58
2024/02/26 06:16:31;;;;;;;12.73;11.07;;;2.30;99.90;;;;;;5032873;28;20934;-58
2024/02/26 06:19:00;;;;;;;14.13;11.90;;;2.30;99.90;;;;;;5030947;28;20923;-57
2024/02/26 06:21:29;;;;;;;13.43;11.27;;;2.30;99.90;;;;;;5028100;28;20458;-59
2024/02/26 06:23:58;;;;;;;12.90;10.73;;;2.30;99.90;;;;;;5021663;28;20500;-58
2024/02/26 06:26:28;;;;;;;13.67;12.17;;;2.30;99.90;;;;;;4996867;28;20825;-57
2024/02/26 06:28:56;;;;;;;15.67;12.83;;;2.30;99.90;;;;;;5000077;28;20534;-58
2024/02/26 06:31:27;;;;;;;13.03;11.43;;;2.30;99.90;;;;;;5013855;28;20500;-57
2024/02/26 06:33:55;;;;;;;16.50;13.30;;;2.30;99.90;;;;;;5005149;28;20467;-56
2024/02/26 06:36:23;;;;;;;13.60;11.90;;;2.40;99.90;;;;;;5011921;28;20497;-58
2024/02/26 06:38:53;;;;;;;14.47;12.13;;;2.40;99.90;;;;;;5021258;28;21042;-58
2024/02/26 06:41:27;;;;;;;14.70;12.07;;;2.40;99.90;;;;;;5024769;28;20558;-58
2024/02/26 06:43:55;;;;;;;15.60;12.87;;;2.40;99.90;;;;;;5020201;28;20556;-57
2024/02/26 06:46:23;;;;;;;15.53;11.80;;;2.40;99.90;;;;;;5025719;28;20493;-58
2024/02/26 06:48:53;;;;;;;16.40;13.30;;;2.40;99.90;;;;;;5022902;28;20491;-58
2024/02/26 06:51:22;;;;;;;18.23;14.03;;;2.40;99.90;;;;;;5017664;28;20498;-58
2024/02/26 06:53:52;;;;;;;17.57;14.20;;;2.50;99.90;;;;;;5017541;28;20519;-58
2024/02/26 06:56:20;;;;;;;14.57;11.80;;;2.50;99.90;;;;;;5024122;28;20498;-59
2024/02/26 06:58:48;;;;;;;17.33;13.10;;;2.50;99.90;;;;;;5022808;28;20486;-58
2024/02/26 07:01:16;;;;;;;16.60;13.63;;;2.50;99.90;;;;;;5023279;28;20989;-57
2024/02/26 07:03:44;;;;;;;15.30;12.13;;;2.60;99.90;;;;;;5026422;28;20549;-58
2024/02/26 07:06:13;;;;;;;15.60;12.20;;;2.60;99.90;;;;;;5027349;28;20494;-59
2024/02/26 07:08:41;;;;;;;16.90;13.57;;;2.60;99.90;;;;;;5022730;28;20580;-57
2024/02/26 07:11:11;;;;;;;16.30;12.97;;;2.60;99.90;;;;;;5016072;28;20890;-59
2024/02/26 07:13:39;;;;;;;16.53;13.20;;;2.60;99.90;;;;;;5021062;28;21003;-58
2024/02/26 07:16:09;;;;;;;16.10;12.83;;;2.60;99.90;;;;;;5027688;28;20543;-58
2024/02/26 07:18:37;;;;;;;17.23;12.93;;;2.60;99.90;;;;;;5032236;28;20492;-57
2024/02/26 07:21:06;;;;;;;16.00;12.63;;;2.70;99.90;;;;;;5023325;28;20552;-58
2024/02/26 07:23:34;;;;;;;16.63;13.00;;;2.60;99.90;;;;;;5021417;28;21411;-58
2024/02/26 07:26:02;;;;;;;15.70;12.83;;;2.60;99.90;;;;;;5021126;28;20899;-58
2024/02/26 07:28:31;;;;;;;17.37;13.20;;;2.70;99.90;;;;;;5019148;28;20494;-61
2024/02/26 07:30:59;;;;;;;16.70;13.60;;;2.70;99.90;;;;;;5015748;28;20582;-61
2024/02/26 07:33:27;;;;;;;17.10;13.20;;;2.70;99.90;;;;;;5021280;28;20980;-59
2024/02/26 07:35:55;;;;;;;17.40;12.90;;;2.70;99.90;;;;;;5019218;28;21031;-61
2024/02/26 07:38:24;;;;;;;16.10;12.50;;;2.70;99.90;;;;;;5020149;28;20486;-62
2024/02/26 07:41:08;;;;;;;15.40;12.60;;;2.80;99.90;;;;;;5020464;28;20549;-60
2024/02/26 07:43:38;;;;;;;17.00;13.10;;;2.80;99.90;;;;;;5019503;28;20892;-59
2024/02/26 07:46:06;;;;;;;17.50;13.90;;;2.80;99.90;;;;;;5017684;28;20475;-60
2024/02/26 07:48:34;;;;;;;17.90;13.60;;;2.80;99.90;;;;;;5018802;28;20582;-62
2024/02/26 07:51:03;;;;;;;16.70;13.30;;;2.90;99.90;;;;;;5021448;28;20871;-59
2024/02/26 07:53:31;;;;;;;16.87;13.13;;;2.90;99.90;;;;;;5022223;28;20562;-61
2024/02/26 07:55:59;;;;;;;18.30;13.63;;;2.90;99.90;;;;;;5016968;28;20501;-60
2024/02/26 07:58:27;;;;;;;18.17;13.23;;;2.90;99.90;;;;;;5017738;28;20522;-58
2024/02/26 08:00:56;;;;;;;16.20;13.77;;;3.00;99.90;;;;;;5016198;28;20458;-59
2024/02/26 08:03:24;;;;;;;15.90;13.30;;;3.00;99.90;;;;;;5017190;28;21044;-60
2024/02/26 08:05:52;;;;;;;17.73;13.87;;;3.00;99.90;;;;;;5021815;28;20993;-59
2024/02/26 08:08:21;;;;;;;17.07;13.10;;;3.10;99.90;;;;;;5020120;28;20491;-61
2024/02/26 08:10:49;;;;;;;18.50;14.03;;;3.10;99.90;;;;;;5022256;28;20489;-61
2024/02/26 08:13:17;;;;;;;18.40;14.27;;;3.10;99.90;;;;;;5014987;28;21331;-60
2024/02/26 08:15:45;;;;;;;18.30;14.50;;;3.10;99.90;;;;;;5020485;28;20482;-59
2024/02/26 08:18:15;;;;;;;19.70;14.07;;;3.20;99.90;;;;;;5018026;28;20491;-59
2024/02/26 08:20:44;;;;;;;17.67;14.20;;;3.20;99.90;;;;;;5017489;28;20471;-61
2024/02/26 08:23:12;;;;;;;18.30;13.93;;;3.20;99.90;;;;;;5024103;28;20557;-60
2024/02/26 08:25:40;;;;;;;19.97;14.63;;;3.30;99.90;;;;;;5023377;28;20596;-61
2024/02/26 08:28:08;;;;;;;19.70;13.90;;;3.30;99.90;;;;;;5022132;28;20562;-61
2024/02/26 08:30:36;;;;;;;18.50;13.73;;;3.30;99.90;;;;;;5022564;28;20495;-62
2024/02/26 08:33:04;;;;;;;18.53;13.80;;;3.30;99.90;;;;;;5020479;28;20467;-61
2024/02/26 08:35:33;;;;;;;17.60;14.00;;;3.30;99.90;;;;;;5021019;28;20528;-61
2024/02/26 08:38:02;;;;;;;17.70;14.00;;;3.30;99.90;;;;;;5020969;28;20494;-59
2024/02/26 08:40:31;;;;;;;20.33;13.30;;;3.30;99.90;;;;;;5022461;28;20458;-59
2024/02/26 08:42:59;;;;;;;19.43;14.00;;;3.40;99.90;;;;;;5023990;28;20890;-60
2024/02/26 08:45:27;;;;;;;17.50;14.47;;;3.40;99.90;;;;;;5023810;28;20998;-60
2024/02/26 08:47:58;;;;;;;19.47;13.87;;;3.40;99.90;;;;;;5023564;28;20503;-58
2024/02/26 08:50:26;;;;;;;17.93;13.57;;;3.50;99.90;;;;;;5021228;28;21363;-60
2024/02/26 08:52:56;;;;;;;18.80;14.37;;;3.50;99.90;;;;;;5021212;28;20466;-61
2024/02/26 08:55:24;;;;;;;17.30;13.47;;;3.50;99.90;;;;;;5023347;28;22200;-61
2024/02/26 08:57:52;;;;;;;14.73;12.43;;;3.50;99.90;;;;;;5021296;28;20570;-59
2024/02/26 09:00:21;;;;;;;15.40;12.67;;;3.50;99.90;;;;;;5025889;28;20569;-60
2024/02/26 09:02:49;;;;;;;17.50;13.27;;;3.50;99.90;;;;;;5031149;28;20502;-60
2024/02/26 09:05:17;;;;;;;19.13;14.00;;;3.60;99.90;;;;;;5030363;28;20484;-61
2024/02/26 09:07:46;;;;;;;16.63;12.20;;;3.60;99.90;;;;;;5034744;28;20498;-61
2024/02/26 09:10:15;;;;;;;17.97;12.37;;;3.70;99.90;;;;;;5033235;28;20929;-59
2024/02/26 09:12:43;;;;;;;16.27;12.50;;;3.60;99.90;;;;;;5034485;28;21308;-61
2024/02/26 09:15:12;;;;;;;17.97;14.33;;;3.70;99.90;;;;;;5027782;28;20479;-60
2024/02/26 09:17:40;;;;;;;20.10;14.27;;;3.80;99.90;;;;;;5033272;28;20502;-61
2024/02/26 09:20:10;;;;;;;16.70;12.43;;;3.80;99.90;;;;;;5034173;28;20465;-59
2024/02/26 09:22:38;;;;;;;18.47;12.97;;;3.80;99.90;;;;;;5031266;28;20594;-60
2024/02/26 09:25:07;;;;;;;17.73;13.63;;;3.90;99.90;;;;;;5034026;28;20467;-59
2024/02/26 09:27:36;;;;;;;17.00;13.90;;;3.90;99.90;;;;;;5032273;28;20575;-60
2024/02/26 09:30:10;;;;;;;16.50;12.27;;;3.90;99.90;;;;;;5031865;28;20477;-58
2024/02/26 09:32:39;;;;;;;17.67;13.70;;;4.00;99.90;;;;;;5020803;28;20501;-58
2024/02/26 09:35:08;;;;;;;20.27;13.57;;;4.00;99.90;;;;;;5019603;28;20822;-60
2024/02/26 09:37:36;;;;;;;17.87;12.80;;;4.10;99.90;;;;;;5017007;28;20882;-60
2024/02/26 09:40:06;;;;;;;18.50;13.37;;;4.10;99.90;;;;;;5006284;28;20474;-61
2024/02/26 09:42:36;;;;;;;18.43;13.63;;;4.20;99.90;;;;;;5003845;28;20470;-61
2024/02/26 09:45:08;;;;;;;20.03;14.00;;;4.20;99.90;;;;;;5007482;28;20485;-60
2024/02/26 09:47:38;;;;;;;17.10;13.43;;;4.20;99.90;;;;;;5010080;28;20490;-60
2024/02/26 09:50:12;;;;;;;17.47;13.57;;;4.30;99.90;;;;;;5004241;28;21544;-60
2024/02/26 09:52:42;;;;;;;17.57;13.67;;;4.30;99.90;;;;;;5010185;28;20487;-59
2024/02/26 09:55:10;;;;;;;19.93;14.90;;;4.40;99.90;;;;;;5012770;28;20554;-60
2024/02/26 09:57:44;;;;;;;17.50;13.67;;;4.40;99.90;;;;;;5008841;28;20606;-61
2024/02/26 10:00:18;;;;;;;20.93;14.60;;;4.40;99.90;;;;;;5011059;28;20480;-59
2024/02/26 10:02:48;;;;;;;20.33;13.70;;;4.50;99.90;;;;;;5013630;28;20470;-60
2024/02/26 10:05:18;;;;;;;20.17;13.00;;;4.50;99.90;;;;;;5018040;28;20951;-60
2024/02/26 10:07:47;;;;;;;19.20;14.53;;;4.50;99.90;;;;;;5004280;28;21087;-59
2024/02/26 10:10:15;;;;;;;19.67;14.33;;;4.50;99.90;;;;;;5010704;28;20907;-61
2024/02/26 10:12:44;;;;;;;19.57;13.30;;;4.60;99.90;;;;;;5013089;28;20910;-59
2024/02/26 10:15:13;;;;;;;18.43;13.80;;;4.60;99.90;;;;;;5015334;28;20481;-59
2024/02/26 10:17:42;;;;;;;19.87;14.00;;;4.60;99.90;;;;;;5027408;28;20581;-62
2024/02/26 10:20:14;;;;;;;21.00;14.70;;;4.70;99.90;;;;;;5019981;28;20491;-60
2024/02/26 10:22:43;;;;;;;20.57;14.73;;;4.70;99.90;;;;;;5027529;28;20853;-57
2024/02/26 10:25:11;;;;;;;18.93;13.20;;;4.80;99.90;;;;;;5032424;28;20468;-58
2024/02/26 10:27:41;;;;;;;20.33;12.97;;;4.80;99.90;;;;;;5033821;28;20588;-58
2024/02/26 10:30:19;;;;;;;19.77;13.63;;;4.90;99.90;;;;;;5027266;28;20985;-58
2024/02/26 10:32:48;;;;;;;22.23;13.77;;;4.90;99.90;;;;;;5034489;28;20498;-58
2024/02/26 10:35:17;;;;;;;18.40;14.00;;;5.00;99.90;;;;;;5032749;28;20859;-58
2024/02/26 10:37:45;;;;;;;20.70;14.30;;;5.10;99.90;;;;;;5027499;28;20487;-58
2024/02/26 10:40:14;;;;;;;18.30;13.50;;;5.10;99.90;;;;;;5029370;28;20554;-58
2024/02/26 10:42:45;;;;;;;17.80;13.60;;;5.20;99.90;;;;;;5032933;28;20463;-59
2024/02/26 10:45:13;;;;;;;20.83;14.03;;;5.20;99.90;;;;;;5032433;28;20561;-58
2024/02/26 10:47:43;;;;;;;21.30;15.50;;;5.30;99.90;;;;;;5033145;28;20497;-58
2024/02/26 10:50:13;;;;;;;17.30;12.67;;;5.30;99.90;;;;;;5025900;28;20474;-58
2024/02/26 10:52:43;;;;;;;19.77;12.73;;;5.40;99.90;;;;;;5030177;28;20587;-58
2024/02/26 10:55:17;;;;;;;22.60;15.23;;;5.50;99.90;;;;;;5033600;28;20539;-58
2024/02/26 10:57:46;;;;;;;19.70;13.10;;;5.50;99.90;;;;;;5034068;28;20498;-58
2024/02/26 11:00:16;;;;;;;21.43;14.63;;;5.60;99.90;;;;;;5033681;28;21114;-58
2024/02/26 11:02:47;;;;;;;19.10;13.50;;;5.70;99.90;;;;;;5030711;28;20819;-59
2024/02/26 11:05:16;;;;;;;20.53;13.40;;;5.80;99.90;;;;;;5032702;28;20462;-59
2024/02/26 11:07:46;;;;;;;17.10;12.07;;;5.90;99.90;;;;;;5029108;28;20483;-57
2024/02/26 11:10:16;;;;;;;17.80;13.40;;;6.00;99.90;;;;;;5030335;28;20470;-58
2024/02/26 11:12:45;;;;;;;17.23;13.37;;;6.10;99.90;;;;;;5031630;28;20970;-58
2024/02/26 11:15:13;;;;;;;18.17;12.70;;;6.20;99.90;;;;;;5030856;28;20541;-58
2024/02/26 11:17:43;;;;;;;17.63;12.27;;;6.30;99.90;;;;;;5033046;28;21167;-58
2024/02/26 11:20:14;;;;;;;17.27;12.30;;;6.50;99.90;;;;;;5031335;28;20570;-59
2024/02/26 11:22:43;;;;;;;16.10;12.57;;;6.60;99.90;;;;;;5034499;28;20463;-58
2024/02/26 11:25:12;;;;;;;16.93;13.00;;;6.80;99.90;;;;;;5032613;28;20485;-58
2024/02/26 11:27:44;;;;;;;16.70;12.63;;;6.90;99.90;;;;;;5025329;28;20509;-57
2024/02/26 11:30:14;;;;;;;16.40;12.57;;;7.00;99.90;;;;;;5029658;28;20480;-58
2024/02/26 11:32:46;;;;;;;17.17;12.40;;;7.20;99.90;;;;;;5030157;28;20491;-58
2024/02/26 11:35:18;;;;;;;16.90;11.80;;;7.30;99.90;;;;;;5028927;28;20952;-58
2024/02/26 11:37:54;;;;;;;14.63;11.00;;;7.40;99.90;;;;;;5031388;28;20486;-58
2024/02/26 11:40:24;;;;;;;15.80;12.20;;;7.60;99.90;;;;;;5030865;28;23836;-58
2024/02/26 11:42:53;;;;;;;14.07;10.67;;;7.70;99.90;;;;;;5022775;28;20542;-58
2024/02/26 11:45:51;;;;;;;13.13;10.50;;;7.80;99.90;;;;;;5027118;28;20470;-57
2024/02/26 11:48:24;;;;;;;12.70;10.80;;;7.90;99.90;;;;;;5028220;28;20571;-57
2024/02/26 11:50:55;;;;;;;13.70;10.20;;;8.00;99.90;;;;;;5024323;28;20466;-57
2024/02/26 11:53:28;;;;;;;11.90;10.27;;;8.10;99.90;;;;;;5028766;28;20494;-57
2024/02/26 11:56:29;;;;;;;13.03;10.93;;;8.10;99.90;;;;;;5031558;28;20509;-58
2024/02/26 11:59:01;;;;;;;12.80;10.23;;;8.10;99.90;;;;;;4968563;28;20528;-57
2024/02/26 12:01:48;;;;;;;12.60;10.57;;;8.10;99.90;;;;;;4973344;28;20488;-56
2024/02/26 12:04:22;;;;;;;11.30;10.10;;;8.10;99.90;;;;;;5009079;28;20479;-58
2024/02/26 12:06:56;;;;;;;11.23;10.03;;;8.10;99.90;;;;;;5032156;28;20490;-57
2024/02/26 12:09:34;;;;;;;12.10;10.80;;;8.10;99.90;;;;;;5032350;28;21125;-57
2024/02/26 12:12:04;;;;;;;13.53;12.03;;;8.10;99.90;;;;;;5027609;28;20475;-58
2024/02/26 12:14:35;;;;;;;11.90;10.70;;;8.10;99.90;;;;;;5025109;28;20467;-58
2024/02/26 12:17:06;;;;;;;11.90;10.30;;;8.10;99.90;;;;;;5033771;28;20495;-58
2024/02/26 12:19:36;;;;;;;13.70;11.30;;;8.10;99.90;;;;;;5033248;28;20490;-57
2024/02/26 12:22:13;;;;;;;13.10;10.90;;;8.10;99.90;;;;;;5031399;28;20497;-58
2024/02/26 12:24:41;;;;;;;11.60;10.40;;;8.10;99.90;;;;;;5031685;28;20481;-58
2024/02/26 12:27:09;;;;;;;12.83;10.73;;;8.10;99.90;;;;;;5031210;28;20597;-56
2024/02/26 12:29:37;;;;;;;12.90;11.10;;;8.20;99.90;;;;;;5020639;28;20581;-59
2024/02/26 12:32:06;;;;;;;11.57;10.37;;;8.30;99.90;;;;;;5029749;28;21050;-58
2024/02/26 12:34:35;;;;;;;12.50;10.90;;;8.50;99.90;;;;;;5031200;28;20490;-58
2024/02/26 12:37:04;;;;;;;13.47;10.67;;;8.60;99.90;;;;;;5032590;28;20496;-58
2024/02/26 12:39:33;;;;;;;12.13;10.80;;;8.60;99.90;;;;;;5027500;28;20517;-57
2024/02/26 12:42:02;;;;;;;11.33;10.23;;;8.70;99.90;;;;;;5035561;28;20893;-58
2024/02/26 12:44:32;;;;;;;13.07;10.90;;;8.60;99.90;;;;;;5027805;28;20520;-58
2024/02/26 12:47:03;;;;;;;12.73;10.70;;;8.50;99.90;;;;;;5027360;28;20725;-58
2024/02/26 12:49:32;;;;;;;11.50;10.30;;;8.50;99.90;;;;;;5033121;28;20490;-58
2024/02/26 12:52:02;;;;;;;13.63;11.40;;;8.50;99.90;;;;;;5025796;28;20473;-60